Adams Ranch #1

2021-01-22 05:00:00

  • imperial
Date Time Air Temperature Relative Humidity Wind Speed Wind Dir. Precipitation Solar Radiation Soil Temperature Soil Temperature Soil Temperature Soil Temperature Soil Temperature
5cm 10cm 20cm 50cm 100cm
US/Mountain F % MPH deg in MJ/m^2 F F F F F
max min avg max min max avg avg
2021-01-21 06:00:00 39.6 37.8 38.8 71.0 67.0 16.0 9.5 -99.9 0.00 0.0000000 37.6 93.7 39.2 40.8 43.7
2021-01-21 07:00:00 39.9 38.1 39.0 70.0 67.0 15.7 9.7 -99.9 0.00 0.0005760 37.6 93.9 39.2 40.8 43.7
2021-01-21 08:00:00 45.5 39.9 40.5 67.0 57.0 16.3 9.6 -99.9 0.00 0.1868400 37.6 93.7 39.2 40.6 43.7
2021-01-21 09:00:00 47.7 45.5 46.4 57.0 51.0 18.6 11.2 -99.9 0.00 0.7923600 38.1 94.1 39.0 40.6 43.7
2021-01-21 10:00:00 53.2 47.5 50.2 51.0 38.0 19.7 11.9 -99.9 0.00 1.3075200 39.9 94.6 39.2 40.6 43.9
2021-01-21 11:00:00 52.9 51.1 51.8 42.0 40.0 19.4 12.6 -99.9 0.00 1.1617200 42.3 95.5 39.4 40.6 43.7
2021-01-21 12:00:00 54.0 51.1 53.1 41.0 37.0 19.0 11.8 -99.9 0.00 1.5757200 45.0 97.2 39.9 40.6 43.7
2021-01-21 13:00:00 57.0 53.6 54.3 38.0 32.0 18.3 10.0 -99.9 0.00 1.9677600 46.9 99.0 40.6 40.6 43.7
2021-01-21 14:00:00 57.0 53.8 55.4 36.0 32.0 20.2 11.0 -99.9 0.00 1.3478400 48.7 100.2 41.5 40.6 43.7
2021-01-21 15:00:00 55.0 54.5 55.0 37.0 34.0 21.5 12.7 -99.9 0.00 1.6437600 49.6 101.1 42.3 40.8 43.7
2021-01-21 16:00:00 54.5 52.9 53.8 40.0 37.0 20.4 12.5 -99.9 0.00 1.0803600 49.1 101.8 43.2 40.8 43.7
2021-01-21 17:00:00 52.9 48.7 52.2 47.0 40.0 18.2 10.7 -99.9 0.00 0.5464800 47.8 101.7 43.7 40.8 43.7
2021-01-21 18:00:00 48.7 44.6 46.4 56.0 47.0 13.7 6.5 -99.9 0.00 0.0260280 46.6 101.1 43.9 41.0 43.9
2021-01-21 19:00:00 45.0 41.7 43.5 63.0 56.0 10.9 4.2 -99.9 0.00 0.0000000 45.0 100.2 44.1 41.2 43.9
2021-01-21 20:00:00 41.7 38.3 39.7 68.0 63.0 5.8 3.0 -99.9 0.00 0.0000000 43.3 99.1 43.9 41.2 43.9
2021-01-21 21:00:00 38.3 36.9 37.6 73.0 68.0 5.0 3.2 -99.9 0.00 0.0000000 41.7 98.2 43.5 41.4 43.9
2021-01-21 22:00:00 36.9 35.6 36.1 74.0 72.0 7.5 4.1 -99.9 0.00 0.0000000 40.5 97.2 43.0 41.5 43.9
2021-01-21 23:00:00 37.0 35.8 36.7 72.0 68.0 8.3 4.6 -99.9 0.00 0.0000000 39.6 96.4 42.6 41.5 43.9
2021-01-22 00:00:00 37.2 36.3 36.7 69.0 65.0 10.9 6.7 -99.9 0.00 0.0000000 38.8 95.9 42.1 41.7 43.9
2021-01-22 01:00:00 37.4 35.6 36.7 76.0 65.0 10.0 6.5 -99.9 0.00 0.0000000 38.3 95.4 41.7 41.7 43.9
2021-01-22 02:00:00 36.7 33.8 35.4 81.0 76.0 10.4 5.9 -99.9 0.00 0.0000000 37.8 94.8 41.2 41.7 43.9
2021-01-22 03:00:00 35.1 33.8 34.5 81.0 75.0 9.7 6.1 -99.9 0.00 0.0000000 37.2 94.5 40.8 41.7 43.9
2021-01-22 04:00:00 34.5 32.5 33.4 76.0 75.0 8.1 4.1 -99.9 0.00 0.0000000 36.7 93.9 40.5 41.7 43.9
2021-01-22 05:00:00 35.1 31.1 34.5 78.0 70.0 7.9 3.8 -99.9 0.00 0.0000000 36.1 93.4 40.1 41.7 43.9

Data is presented as is, with no certification of correctness. DO NOT USE IN LEGAL PROCEEDINGS.